createdAt,value
2023-05-13T00:04:40.565Z,9.63
2023-05-13T00:09:43.237Z,9.83
2023-05-13T00:14:45.853Z,9.69
2023-05-13T00:19:48.577Z,9.62
2023-05-13T00:24:56.996Z,9.50
2023-05-13T00:30:00.206Z,9.28
2023-05-13T00:35:03.050Z,9.16
2023-05-13T00:40:20.167Z,8.87
2023-05-13T00:45:23.773Z,8.91
2023-05-13T00:50:26.619Z,8.91
2023-05-13T00:55:29.483Z,8.72
2023-05-13T01:00:35.729Z,8.76
2023-05-13T01:05:59.850Z,8.66
2023-05-13T01:11:11.951Z,8.54
2023-05-13T01:16:53.362Z,8.59
2023-05-13T01:21:56.566Z,8.64
2023-05-13T01:27:00.274Z,8.67
2023-05-13T01:32:03.508Z,8.76
2023-05-13T01:37:06.596Z,9.12
2023-05-13T01:42:09.529Z,10.72
2023-05-13T01:47:12.407Z,12.30
2023-05-13T01:52:15.153Z,13.74
2023-05-13T01:57:18.000Z,15.74
2023-05-13T02:02:20.765Z,17.44
2023-05-13T02:07:24.305Z,19.80
2023-05-13T02:12:27.408Z,21.62
2023-05-13T02:17:30.207Z,23.07
2023-05-13T02:22:33.223Z,24.50
2023-05-13T02:27:35.978Z,25.75
2023-05-13T02:32:42.876Z,26.97
2023-05-13T02:37:46.698Z,28.37
2023-05-13T02:42:49.744Z,29.32
2023-05-13T02:47:58.216Z,30.49
2023-05-13T02:53:01.276Z,30.53
2023-05-13T02:58:05.402Z,29.46
2023-05-13T03:03:08.532Z,24.79
2023-05-13T03:08:12.159Z,22.19
2023-05-13T03:13:17.738Z,20.48
2023-05-13T03:18:20.371Z,19.28
2023-05-13T03:23:25.954Z,18.71
2023-05-13T03:28:31.957Z,18.22
2023-05-13T03:33:37.637Z,18.14
2023-05-13T03:38:40.788Z,18.15
2023-05-13T03:43:44.628Z,17.22
2023-05-13T03:48:49.464Z,16.58
2023-05-13T03:53:52.323Z,16.19
2023-05-13T03:58:55.394Z,15.98
2023-05-13T04:03:58.166Z,15.68
2023-05-13T04:09:02.369Z,15.68
2023-05-13T04:14:05.072Z,15.38
2023-05-13T04:19:07.911Z,15.47
2023-05-13T04:24:11.011Z,15.53
2023-05-13T04:29:13.737Z,15.68
2023-05-13T04:34:17.607Z,16.09
2023-05-13T04:39:21.963Z,16.22
2023-05-13T04:44:24.666Z,16.26
2023-05-13T04:49:27.703Z,16.47
2023-05-13T04:54:30.986Z,16.47
2023-05-13T04:59:33.847Z,16.49
2023-05-13T05:04:37.204Z,16.72
2023-05-13T05:09:45.758Z,16.89
2023-05-13T05:14:48.892Z,17.14
2023-05-13T05:19:51.765Z,17.22
2023-05-13T05:24:54.537Z,17.07
2023-05-13T05:29:57.279Z,17.45
2023-05-13T05:35:02.375Z,17.60
2023-05-13T05:40:07.584Z,17.99
2023-05-13T05:45:14.542Z,18.14
2023-05-13T05:50:18.088Z,18.34
2023-05-13T05:55:21.301Z,18.58
2023-05-13T06:00:24.640Z,18.80
2023-05-13T06:05:27.987Z,18.56
2023-05-13T06:10:30.751Z,18.70
2023-05-13T06:15:34.069Z,19.06
2023-05-13T06:20:36.902Z,19.01
2023-05-13T06:25:39.552Z,19.09
2023-05-13T06:30:44.422Z,19.34
2023-05-13T06:35:49.571Z,19.42
2023-05-13T06:40:53.877Z,19.56
2023-05-13T06:46:02.738Z,19.82
2023-05-13T06:51:06.037Z,19.46
2023-05-13T06:56:08.872Z,19.47
2023-05-13T07:01:11.673Z,19.50
2023-05-13T07:06:14.388Z,19.92
2023-05-13T07:11:17.248Z,20.04
2023-05-13T07:16:19.836Z,19.88
2023-05-13T07:21:22.752Z,19.95
2023-05-13T07:26:25.476Z,20.02
2023-05-13T07:31:29.064Z,19.89
2023-05-13T07:36:32.050Z,20.25
2023-05-13T07:41:36.349Z,20.77
2023-05-13T07:46:39.071Z,20.74
2023-05-13T07:51:42.052Z,20.65
2023-05-13T07:56:46.698Z,20.72
2023-05-13T08:01:49.494Z,20.70
2023-05-13T08:06:52.145Z,20.93
2023-05-13T08:11:54.904Z,21.21
2023-05-13T08:16:57.644Z,21.28
2023-05-13T08:22:00.313Z,21.27
2023-05-13T08:27:03.560Z,21.07
2023-05-13T08:32:07.038Z,21.18
2023-05-13T08:37:09.721Z,21.41
2023-05-13T08:42:15.270Z,21.31
2023-05-13T08:47:41.618Z,21.45
2023-05-13T08:52:44.546Z,21.59
2023-05-13T08:57:47.252Z,21.60
2023-05-13T09:02:51.369Z,21.50
2023-05-13T09:07:55.999Z,21.87
2023-05-13T09:12:59.144Z,21.90
2023-05-13T09:18:05.027Z,21.75
2023-05-13T09:23:10.708Z,21.56
2023-05-13T09:28:15.124Z,21.78
2023-05-13T09:33:22.802Z,21.74
2023-05-13T09:38:27.808Z,21.65
2023-05-13T09:43:34.577Z,21.91
2023-05-13T09:48:44.426Z,21.92
2023-05-13T09:53:50.885Z,21.82
2023-05-13T09:58:53.653Z,22.09
2023-05-13T10:03:59.709Z,22.19
2023-05-13T10:09:03.842Z,22.35
2023-05-13T10:14:07.573Z,22.53
2023-05-13T10:19:10.914Z,22.76
2023-05-13T10:24:14.551Z,22.63
2023-05-13T10:29:17.798Z,22.55
2023-05-13T10:34:22.538Z,22.67
2023-05-13T10:40:06.595Z,22.50
2023-05-13T10:45:10.390Z,22.58
2023-05-13T10:50:26.074Z,22.43
2023-05-13T10:55:28.843Z,22.51
2023-05-13T11:00:32.405Z,22.71
2023-05-13T11:05:35.154Z,22.59
2023-05-13T11:10:38.033Z,23.04
2023-05-13T11:15:50.738Z,22.80
2023-05-13T11:20:54.199Z,23.03
2023-05-13T11:26:12.416Z,22.78
2023-05-13T11:31:19.386Z,22.92
2023-05-13T11:36:22.206Z,22.93
2023-05-13T11:41:25.160Z,23.13
2023-05-13T11:46:27.967Z,23.06
2023-05-13T11:51:32.116Z,23.29
2023-05-13T11:56:36.313Z,23.26
2023-05-13T12:01:38.951Z,22.44
2023-05-13T12:06:46.007Z,22.72
2023-05-13T12:11:49.894Z,22.85
2023-05-13T12:16:52.733Z,23.12
2023-05-13T12:21:55.511Z,23.27
2023-05-13T12:27:05.469Z,22.93
2023-05-13T12:32:08.631Z,23.03
2023-05-13T12:37:13.038Z,23.42
2023-05-13T12:42:19.124Z,23.30
2023-05-13T12:47:23.273Z,23.34
2023-05-13T12:52:26.184Z,23.29
2023-05-13T12:57:30.546Z,23.34
2023-05-13T13:02:34.865Z,23.33
2023-05-13T13:07:38.290Z,23.16
2023-05-13T13:12:41.507Z,23.23
2023-05-13T13:17:44.405Z,23.39
2023-05-13T13:22:47.031Z,22.72
2023-05-13T13:27:49.816Z,22.47
2023-05-13T13:32:52.539Z,22.80
2023-05-13T13:37:55.593Z,22.87
2023-05-13T13:42:58.179Z,22.97
2023-05-13T13:48:00.977Z,23.03
2023-05-13T13:53:03.678Z,23.09
2023-05-13T13:58:06.388Z,23.00
2023-05-13T14:03:09.107Z,22.83
2023-05-13T14:08:12.052Z,23.04
2023-05-13T14:13:14.696Z,22.84
2023-05-13T14:18:17.382Z,22.89
2023-05-13T14:23:20.043Z,22.92
2023-05-13T14:28:25.036Z,22.74
2023-05-13T14:33:27.766Z,22.35
2023-05-13T14:38:31.324Z,22.43
2023-05-13T14:43:34.339Z,22.27
2023-05-13T14:48:36.976Z,22.10
2023-05-13T14:53:40.020Z,22.13
2023-05-13T14:58:42.691Z,21.86
2023-05-13T15:03:45.388Z,22.06
2023-05-13T15:08:48.062Z,22.07
2023-05-13T15:13:50.741Z,22.06
2023-05-13T15:18:53.431Z,21.67
2023-05-13T15:23:56.104Z,21.49
2023-05-13T15:28:58.879Z,21.30
2023-05-13T15:34:03.327Z,21.18
2023-05-13T15:39:06.505Z,21.12
2023-05-13T15:44:09.164Z,21.02
2023-05-13T15:49:11.851Z,20.94
2023-05-13T15:54:14.448Z,20.91
2023-05-13T15:59:17.153Z,20.89
2023-05-13T16:04:19.831Z,20.83
2023-05-13T16:09:22.592Z,20.81
2023-05-13T16:14:25.282Z,20.73
2023-05-13T16:19:28.007Z,20.62
2023-05-13T16:24:30.577Z,20.53
2023-05-13T16:29:33.279Z,20.46
2023-05-13T16:34:35.891Z,20.34
2023-05-13T16:39:38.581Z,20.14
2023-05-13T16:44:41.327Z,19.95
2023-05-13T16:49:45.454Z,19.83
2023-05-13T16:54:48.686Z,19.81
2023-05-13T16:59:51.398Z,19.71
2023-05-13T17:04:54.055Z,19.54
2023-05-13T17:09:56.839Z,19.50
2023-05-13T17:14:59.586Z,19.43
2023-05-13T17:20:02.292Z,19.31
2023-05-13T17:25:07.303Z,19.15
2023-05-13T17:30:10.359Z,19.00
2023-05-13T17:35:13.342Z,18.87
2023-05-13T17:40:15.948Z,18.80
2023-05-13T17:45:18.620Z,18.62
2023-05-13T17:50:21.657Z,18.33
2023-05-13T17:55:24.498Z,18.15
2023-05-13T18:00:27.776Z,18.04
2023-05-13T18:05:30.925Z,17.91
2023-05-13T18:10:33.665Z,17.67
2023-05-13T18:15:36.429Z,17.57
2023-05-13T18:20:42.175Z,17.45
2023-05-13T18:25:55.005Z,17.35
2023-05-13T18:30:58.759Z,17.19
2023-05-13T18:36:02.271Z,17.02
2023-05-13T18:41:06.189Z,16.96
2023-05-13T18:46:09.777Z,16.87
2023-05-13T18:51:12.557Z,16.76
2023-05-13T18:56:16.237Z,16.70
2023-05-13T19:01:19.341Z,16.54
2023-05-13T19:06:22.206Z,16.49
2023-05-13T19:11:24.949Z,16.32
2023-05-13T19:16:27.823Z,16.21
2023-05-13T19:21:30.972Z,16.07
2023-05-13T19:26:35.113Z,15.79
2023-05-13T19:31:37.986Z,15.84
2023-05-13T19:36:42.279Z,15.78
2023-05-13T19:41:47.403Z,15.62
2023-05-13T19:46:50.153Z,15.58
2023-05-13T19:51:54.570Z,15.58
2023-05-13T19:56:57.262Z,15.58
2023-05-13T20:01:59.922Z,15.46
2023-05-13T20:07:02.634Z,15.43
2023-05-13T20:12:05.719Z,15.38
2023-05-13T20:17:08.678Z,15.29
2023-05-13T20:22:11.499Z,15.40
2023-05-13T20:27:14.938Z,15.22
2023-05-13T20:32:21.261Z,15.35
2023-05-13T20:37:24.641Z,15.35
2023-05-13T20:42:27.462Z,15.32
2023-05-13T20:47:30.179Z,15.14
2023-05-13T20:52:33.115Z,15.12
2023-05-13T20:57:36.819Z,15.11
2023-05-13T21:02:39.564Z,15.06
2023-05-13T21:07:42.207Z,14.97
2023-05-13T21:12:47.884Z,14.81
2023-05-13T21:17:50.802Z,14.68
2023-05-13T21:22:53.489Z,14.62
2023-05-13T21:27:56.132Z,14.45
2023-05-13T21:32:59.223Z,14.32
2023-05-13T21:38:11.541Z,14.21
2023-05-13T21:43:15.340Z,14.09
2023-05-13T21:48:18.248Z,13.96
2023-05-13T21:53:22.507Z,13.81
2023-05-13T21:58:25.220Z,13.73
2023-05-13T22:03:27.897Z,13.68
2023-05-13T22:08:30.668Z,13.65
2023-05-13T22:13:33.248Z,13.52
2023-05-13T22:18:36.180Z,13.41
2023-05-13T22:23:39.153Z,13.34
2023-05-13T22:28:41.856Z,13.19
2023-05-13T22:33:44.594Z,13.12
2023-05-13T22:38:47.384Z,13.00
2023-05-13T22:43:50.672Z,12.90
2023-05-13T22:48:53.536Z,12.86
2023-05-13T22:53:56.155Z,12.73
2023-05-13T22:58:58.875Z,12.59
2023-05-13T23:04:01.535Z,12.33
2023-05-13T23:09:04.422Z,12.13
2023-05-13T23:14:07.181Z,12.18
2023-05-13T23:19:10.528Z,12.07
2023-05-13T23:24:13.394Z,11.90
2023-05-13T23:29:16.733Z,11.87
2023-05-13T23:34:19.559Z,11.80
2023-05-13T23:39:22.194Z,11.65
2023-05-13T23:44:25.052Z,11.56
2023-05-13T23:49:27.973Z,11.36
2023-05-13T23:54:31.167Z,11.36
2023-05-13T23:59:33.876Z,11.24
